Flight Track Log - Related Links

Times and Time Zones

All times are in EDT time to prevent confusion due to time zone crossing. See the SKW6306 flight status page for this flight to view local times or setup timezone preferences in your user account.

Time Position Orientation Groundspeed Altitude Reporting Facility
EDT Latitude Longitude Course Direction KTS MPH feet Rate Location/Type
Thu 01:52:49 PM 39.9167 -104.6833 11° North 196 226 6,400  Level Denver TRACON
Thu 01:53:49 PM 39.9833 -104.6667 11° North 232 267 8,200 1,421 Climbing Denver TRACON
Thu 01:54:43 PM 40.0500 -104.6833 349° North 272 313 9,100 1,059 Climbing Denver TRACON
Thu 01:55:14 PM 40.0847 -104.6942 347° North 279 321 9,700 1,419 Climbing Denver Center
Thu 01:56:16 PM 40.1775 -104.7136 351° North 311 358 11,300 1,403 Climbing Denver Center
Thu 01:57:18 PM 40.2706 -104.7342 350° North 337 388 12,600 1,306 Climbing Denver Center
Thu 01:58:20 PM 40.3753 -104.7586 350° North 356 410 14,000 1,355 Climbing Denver Center
Thu 01:59:22 PM 40.4753 -104.7817 350° North 366 421 15,400 1,403 Climbing Denver Center
Thu 02:00:24 PM 40.5853 -104.8056 351° North 374 430 16,900 1,210 Climbing Denver Center
Thu 02:01:26 PM 40.6883 -104.8319 349° North 377 434 17,900 1,016 Climbing Denver Center
Thu 02:02:28 PM 40.7978 -104.8569 350° North 376 433 19,000 1,065 Climbing Denver Center
Thu 02:03:30 PM 40.8983 -104.9050 340° North 379 436 20,100 919 Climbing Denver Center
Thu 02:04:32 PM 41.0142 -104.9636 339° North 394 453 20,900 774 Climbing Denver Center
Thu 02:05:34 PM 41.1161 -105.0131 340° North 403 464 21,700 774 Climbing Denver Center
Thu 02:06:36 PM 41.2197 -105.0653 339° North 411 473 22,500 823 Climbing Denver Center
Thu 02:07:38 PM 41.3414 -105.1236 340° North 414 476 23,400 823 Climbing Denver Center
Thu 02:08:40 PM 41.4456 -105.1781 339° North 418 481 24,200 823 Climbing Denver Center
Thu 02:09:42 PM 41.5703 -105.2369 341° North 423 487 25,100 774 Climbing Denver Center
Thu 02:10:44 PM 41.6872 -105.2597 352° North 440 506 25,800 774 Climbing Denver Center
Thu 02:11:46 PM 41.8217 -105.2864 352° North 437 503 26,700 726 Climbing Denver Center
Thu 02:12:48 PM 41.9367 -105.3067 353° North 435 501 27,300 576 Climbing Denver Center
Thu 02:13:51 PM 42.0736 -105.3322 352° North 440 506 27,900 576 Climbing Denver Center
Thu 02:14:53 PM 42.1892 -105.3525 353° North 437 503 28,500 629 Climbing Denver Center
Thu 02:15:55 PM 42.3239 -105.3806 351° North 436 502 29,200 532 Climbing Denver Center
Thu 02:16:57 PM 42.4394 -105.4011 353° North 436 502 29,600 435 Climbing Denver Center
Thu 02:17:59 PM 42.5547 -105.4236 352° North 436 502 30,100 387 Climbing Denver Center
Thu 02:19:01 PM 42.6944 -105.4511 352° North 448 516 30,400 309 Climbing Denver Center
Thu 02:20:15 PM 42.8544 -105.4817 352° North 452 520 30,800 353 Climbing Denver Center
Thu 02:21:17 PM 42.9772 -105.5047 352° North 459 528 31,200 387 Climbing Denver Center
Thu 02:22:19 PM 43.0992 -105.5286 352° North 461 531 31,600 387 Climbing Denver Center
Thu 02:23:21 PM 43.2433 -105.5556 352° North 466 536 32,000 192 Climbing Denver Center
Thu 02:24:24 PM 43.3675 -105.5808 352° North 468 539 32,000  Level Denver Center
Thu 02:25:26 PM 43.5144 -105.6100 352° North 474 545 32,000  Level Denver Center
Thu 02:26:28 PM 43.6414 -105.6347 352° North 477 549 32,000  Level Denver Center
Thu 02:27:30 PM 43.7908 -105.6647 352° North 482 555 32,000  Level Denver Center
Thu 02:28:32 PM 43.9192 -105.6903 352° North 484 557 32,000  Level Denver Center
Thu 02:29:34 PM 44.0692 -105.7217 351° North 487 560 32,000  Level Denver Center
Thu 02:30:36 PM 44.1978 -105.7492 351° North 488 562 32,000  Level Denver Center
Thu 02:31:38 PM 44.3497 -105.7797 352° North 490 564 32,000  Level Denver Center
Thu 02:32:15 PM 44.4164 -105.7919 353° North 493 567 32,000  Level Salt Lake Center
Thu 02:33:18 PM 44.5681 -105.8239 351° North 493 567 32,000  Level Salt Lake Center
Thu 02:34:19 PM 44.6994 -105.8503 352° North 496 571 32,000  Level Salt Lake Center
Thu 02:35:21 PM 44.8528 -105.8839 351° North 497 572 32,000  Level Salt Lake Center
Thu 02:36:23 PM 44.9850 -105.9097 352° North 500 575 32,000  Level Salt Lake Center
Thu 02:37:25 PM 45.1381 -105.9428 351° North 499 574 32,000  Level Salt Lake Center
Thu 02:38:27 PM 45.2686 -105.9686 352° North 496 571 32,000  Level Salt Lake Center
Thu 02:39:29 PM 45.3983 -105.9983 351° North 497 572 32,000  Level Salt Lake Center
Thu 02:40:31 PM 45.5597 -106.0450 349° North 495 570 32,000  Level Salt Lake Center
Thu 02:41:33 PM 45.6931 -106.0861 348° North 492 566 32,000  Level Salt Lake Center
Thu 02:42:35 PM 45.8261 -106.1278 348° North 491 565 32,000  Level Salt Lake Center
Thu 02:43:37 PM 45.9575 -106.1689 348° North 488 562 32,000  Level Salt Lake Center
Thu 02:44:39 PM 46.0906 -106.2122 347° North 488 562 32,000  Level Salt Lake Center
Thu 02:45:41 PM 46.2236 -106.2550 347° North 488 562 32,000  Level Salt Lake Center
Thu 02:46:43 PM 46.3842 -106.3072 347° North 490 564 32,000  Level Salt Lake Center
Thu 02:47:45 PM 46.5178 -106.3517 347° North 491 565 32,000  Level Salt Lake Center
Thu 02:48:47 PM 46.6539 -106.3983 347° North 494 568 32,000  Level Salt Lake Center
Thu 02:49:49 PM 46.7883 -106.4425 347° North 495 570 32,000  Level Salt Lake Center
Thu 02:50:51 PM 46.9233 -106.4875 347° North 496 571 32,000  Level Salt Lake Center
Thu 02:51:53 PM 47.0589 -106.5331 347° North 497 572 32,000  Level Salt Lake Center
Thu 02:52:55 PM 47.1961 -106.5794 347° North 500 575 32,000  Level Salt Lake Center
Thu 02:53:57 PM 47.3619 -106.6353 347° North 504 580 32,000  Level Salt Lake Center
Thu 02:54:59 PM 47.4978 -106.6817 347° North 504 580 32,000  Level Salt Lake Center
Thu 02:56:01 PM 47.6358 -106.7292 347° North 506 582 32,000  Level Salt Lake Center
Thu 02:57:03 PM 47.7717 -106.7758 347° North 504 580 32,000  Level Salt Lake Center
Thu 02:58:05 PM 47.9089 -106.8233 347° North 504 580 32,000  Level Salt Lake Center
Thu 02:59:07 PM 48.0478 -106.8717 347° North 508 585 32,000  Level Salt Lake Center
Thu 03:00:09 PM 48.2108 -106.9292 347° North 505 581 32,000  Level Salt Lake Center
Thu 03:01:11 PM 48.3508 -106.9772 347° North 510 587 32,000  Level Salt Lake Center
Thu 03:02:13 PM 48.4892 -107.0269 347° North 512 589 32,000  Level Salt Lake Center
Thu 03:03:15 PM 48.6297 -107.0692 349° North 513 590 32,000  Level Salt Lake Center
Thu 03:04:18 PM 48.7758 -107.0828 356° North 519 597 32,000  Level Salt Lake Center
Thu 03:05:19 PM 48.9167 -107.1167 351° North 520 598 32,000  Level Winnipeg Center
Thu 03:06:19 PM 49.0667 -107.1500 352° North 520 598 32,000  Level Winnipeg Center
Thu 03:07:19 PM 49.2167 -107.1833 352° North 520 598 32,000  Level Winnipeg Center
Thu 03:08:19 PM 49.3500 -107.1833 360° North 520 598 32,000  Level Winnipeg Center
Thu 03:09:19 PM 49.5000 -107.1833 360° North 520 598 32,000  Level Winnipeg Center
Thu 03:10:19 PM 49.6333 -107.2167 351° North 520 598 32,000  Level Winnipeg Center
Thu 03:11:19 PM 49.8000 -107.2333 356° North 520 598 32,000  Level Winnipeg Center
Thu 03:12:19 PM 49.9333 -107.2500 355° North 520 598 32,000  Level Winnipeg Center
Thu 03:13:19 PM 50.0833 -107.2667 356° North 510 587 32,000  Level Winnipeg Center
Thu 03:14:19 PM 50.2167 -107.2833 355° North 520 598 32,000  Level Winnipeg Center
Thu 03:15:19 PM 50.3500 -107.3000 355° North 510 587 32,000  Level Winnipeg Center
Thu 03:16:19 PM 50.5000 -107.3333 352° North 510 587 32,000  Level Winnipeg Center
Thu 03:17:19 PM 50.6500 -107.3333 360° North 500 575 32,000  Level Winnipeg Center
Thu 03:18:19 PM 50.7833 -107.3667 351° North 500 575 32,000  Level Winnipeg Center
Thu 03:19:19 PM 50.9000 -107.3667 360° North 490 564 32,000 -100 Level Winnipeg Center
Thu 03:20:19 PM 51.0500 -107.4000 352° North 490 564 31,800 -650 Descending Winnipeg Center
Thu 03:21:19 PM 51.1833 -107.4000 360° North 490 564 30,700 -1,900 Descending Winnipeg Center
Thu 03:22:19 PM 51.3167 -107.4333 351° North 480 552 28,000 -2,850 Descending Winnipeg Center
Thu 03:23:19 PM 51.4333 -107.4167 North 450 518 25,000 -3,400 Descending Winnipeg Center
Thu 03:24:19 PM 51.5667 -107.3333 21° North 450 518 21,200 -3,650 Descending Winnipeg Center
Thu 03:25:19 PM 51.6667 -107.2667 22° Northeast 430 495 17,700 -3,350 Descending Winnipeg Center
Thu 03:26:19 PM 51.7667 -107.2167 17° North 430 495 14,500 -2,800 Descending Winnipeg Center
Thu 03:27:19 PM 51.8833 -107.1500 19° North 400 460 12,100 -2,100 Descending Winnipeg Center
Thu 03:28:19 PM 51.9667 -107.1000 20° North 360 414 10,300 -1,650 Descending Winnipeg Center
Thu 03:29:19 PM 52.0500 -107.0667 14° North 310 357 8,800 -1,550 Descending Winnipeg Center
Thu 03:30:19 PM 52.1333 -107.0500 North 270 311 7,200 -1,700 Descending Winnipeg Center
Thu 03:31:19 PM 52.1833 -107.0000 32° Northeast 220 253 5,400 -1,600 Descending Winnipeg Center
Thu 03:32:19 PM 52.1833 -106.9500 90° East 160 184 4,000 -1,400 Descending Winnipeg Center

Login

Don't have an account? Register now (free) for customized features, flight alerts, and more!